Terminal Aerodrome Forecast
Issued by NWS Topeka, KS

Home | Current Version | Previous Version | Graphics & Text | Print | Product List | Glossary On
Versions: 1 2 3 4 5 6 7 8 9 10 11 12 13 14 15 16
463
FTUS43 KTOP 271743
TAFTOP
TAF
KTOP 271743Z 2718/2818 14012G21KT P6SM BKN060
     FM280100 15011KT P6SM FEW250
     FM280400 15010KT P6SM SCT250 WS015/19055KT
     FM280900 18012KT P6SM VCTS BKN250CB WS015/20055KT
     FM281200 18012KT P6SM BKN090 WS015/21045KT
     FM281400 19015G24KT P6SM BKN060=

USA.gov is the U.S. government's official web portal to all federal, state and local government web resources and services.